sensor_id;sensor_type;location;lat;lon;timestamp;pressure;altitude;pressure_sealevel;temperature;humidity
63883;BME280;50047;50.596;30.466;2022-09-21T00:01:28;98779.73;;;15.17;61.20
63883;BME280;50047;50.596;30.466;2022-09-21T00:03:58;98770.88;;;15.03;62.16
63883;BME280;50047;50.596;30.466;2022-09-21T00:06:28;98780.18;;;15.55;61.35
63883;BME280;50047;50.596;30.466;2022-09-21T00:08:55;98792.65;;;15.64;60.49
63883;BME280;50047;50.596;30.466;2022-09-21T00:11:26;98780.77;;;15.55;60.68
63883;BME280;50047;50.596;30.466;2022-09-21T00:14:00;98775.41;;;15.51;60.71
63883;BME280;50047;50.596;30.466;2022-09-21T00:16:29;98784.47;;;15.20;61.16
63883;BME280;50047;50.596;30.466;2022-09-21T00:18:58;98777.13;;;14.89;62.47
63883;BME280;50047;50.596;30.466;2022-09-21T00:21:26;98776.59;;;15.27;62.16
63883;BME280;50047;50.596;30.466;2022-09-21T00:23:54;98774.87;;;15.72;61.04
63883;BME280;50047;50.596;30.466;2022-09-21T00:26:23;98780.73;;;15.60;60.62
63883;BME280;50047;50.596;30.466;2022-09-21T00:28:56;98779.04;;;15.29;60.89
63883;BME280;50047;50.596;30.466;2022-09-21T00:31:26;98784.52;;;15.08;61.58
63883;BME280;50047;50.596;30.466;2022-09-21T00:33:54;98788.71;;;14.95;61.80
63883;BME280;50047;50.596;30.466;2022-09-21T00:36:22;98790.80;;;15.32;61.64
63883;BME280;50047;50.596;30.466;2022-09-21T00:38:53;98777.83;;;15.70;60.85
63883;BME280;50047;50.596;30.466;2022-09-21T00:41:21;98780.27;;;15.78;60.55
63883;BME280;50047;50.596;30.466;2022-09-21T00:44:19;98776.56;;;15.71;60.28
63883;BME280;50047;50.596;30.466;2022-09-21T00:46:50;98767.25;;;15.34;60.87
63883;BME280;50047;50.596;30.466;2022-09-21T00:49:19;98770.66;;;15.08;61.80
63883;BME280;50047;50.596;30.466;2022-09-21T00:51:47;98766.27;;;15.45;61.73
63883;BME280;50047;50.596;30.466;2022-09-21T00:54:21;98764.42;;;15.76;61.06
63883;BME280;50047;50.596;30.466;2022-09-21T00:56:50;98779.19;;;15.77;60.69
63883;BME280;50047;50.596;30.466;2022-09-21T00:59:17;98770.49;;;15.64;60.47
63883;BME280;50047;50.596;30.466;2022-09-21T01:01:48;98765.59;;;15.33;60.89
63883;BME280;50047;50.596;30.466;2022-09-21T01:04:16;98766.10;;;15.18;61.21
63883;BME280;50047;50.596;30.466;2022-09-21T01:06:45;98773.80;;;15.36;61.60
63883;BME280;50047;50.596;30.466;2022-09-21T01:09:14;98764.73;;;15.78;60.91
63883;BME280;50047;50.596;30.466;2022-09-21T01:31:31;98779.31;;;15.04;62.59
63883;BME280;50047;50.596;30.466;2022-09-21T01:34:07;98773.73;;;14.82;63.88
63883;BME280;50047;50.596;30.466;2022-09-21T01:36:39;98779.70;;;15.33;62.89
63883;BME280;50047;50.596;30.466;2022-09-21T01:39:11;98783.38;;;15.43;62.13
63883;BME280;50047;50.596;30.466;2022-09-21T01:41:40;98779.79;;;15.37;61.81
63883;BME280;50047;50.596;30.466;2022-09-21T01:44:13;98781.20;;;15.17;62.41
63883;BME280;50047;50.596;30.466;2022-09-21T01:46:44;98765.96;;;14.90;63.32
63883;BME280;50047;50.596;30.466;2022-09-21T01:49:15;98772.02;;;14.70;63.95
63883;BME280;50047;50.596;30.466;2022-09-21T01:51:48;98770.40;;;15.01;64.99
63883;BME280;50047;50.596;30.466;2022-09-21T01:54:20;98776.92;;;15.41;63.20
63883;BME280;50047;50.596;30.466;2022-09-21T01:56:57;98765.61;;;15.18;63.67
63883;BME280;50047;50.596;30.466;2022-09-21T01:59:45;98768.20;;;14.93;64.14
63883;BME280;50047;50.596;30.466;2022-09-21T02:02:48;98767.31;;;14.68;64.69
63883;BME280;50047;50.596;30.466;2022-09-21T02:05:17;98763.02;;;15.13;63.95
63883;BME280;50047;50.596;30.466;2022-09-21T02:07:46;98762.02;;;15.22;63.41
63883;BME280;50047;50.596;30.466;2022-09-21T02:10:39;98770.89;;;15.30;62.97
63883;BME280;50047;50.596;30.466;2022-09-21T02:13:06;98768.46;;;15.07;63.54
63883;BME280;50047;50.596;30.466;2022-09-21T02:18:20;98767.13;;;15.12;63.39
63883;BME280;50047;50.596;30.466;2022-09-21T02:20:56;98770.74;;;15.24;63.13
63883;BME280;50047;50.596;30.466;2022-09-21T02:23:34;98776.00;;;15.13;63.14
63883;BME280;50047;50.596;30.466;2022-09-21T02:26:11;98776.45;;;14.86;63.69
63883;BME280;50047;50.596;30.466;2022-09-21T02:28:49;98777.05;;;14.67;64.49
63883;BME280;50047;50.596;30.466;2022-09-21T02:31:52;98774.35;;;15.03;64.00
63883;BME280;50047;50.596;30.466;2022-09-21T02:34:29;98776.02;;;15.41;62.77
63883;BME280;50047;50.596;30.466;2022-09-21T02:37:05;98774.67;;;15.40;62.23
63883;BME280;50047;50.596;30.466;2022-09-21T02:42:13;98780.73;;;14.71;63.69
63883;BME280;50047;50.596;30.466;2022-09-21T02:45:30;98786.52;;;14.92;63.82
63883;BME280;50047;50.596;30.466;2022-09-21T02:47:53;98776.07;;;15.35;62.46
63883;BME280;50047;50.596;30.466;2022-09-21T02:50:27;98788.32;;;15.10;62.80
63883;BME280;50047;50.596;30.466;2022-09-21T02:53:00;98781.59;;;14.88;63.40
63883;BME280;50047;50.596;30.466;2022-09-21T02:55:31;98778.61;;;14.66;64.10
63883;BME280;50047;50.596;30.466;2022-09-21T02:58:01;98781.95;;;15.04;63.63
63883;BME280;50047;50.596;30.466;2022-09-21T03:00:31;98798.95;;;15.26;62.86
63883;BME280;50047;50.596;30.466;2022-09-21T03:02:59;98788.57;;;15.11;62.88
63883;BME280;50047;50.596;30.466;2022-09-21T03:05:27;98794.27;;;14.92;62.92
63883;BME280;50047;50.596;30.466;2022-09-21T03:07:55;98810.16;;;14.66;63.27
63883;BME280;50047;50.596;30.466;2022-09-21T03:10:22;98811.92;;;15.21;62.27
63883;BME280;50047;50.596;30.466;2022-09-21T03:12:49;98798.61;;;15.45;61.51
63883;BME280;50047;50.596;30.466;2022-09-21T03:15:15;98812.42;;;15.20;61.72
63883;BME280;50047;50.596;30.466;2022-09-21T03:17:43;98809.58;;;14.92;62.55
63883;BME280;50047;50.596;30.466;2022-09-21T03:20:10;98806.36;;;14.70;63.10
63883;BME280;50047;50.596;30.466;2022-09-21T03:22:38;98800.77;;;14.61;63.65
63883;BME280;50047;50.596;30.466;2022-09-21T03:25:07;98804.41;;;15.04;63.16
63883;BME280;50047;50.596;30.466;2022-09-21T03:27:38;98806.15;;;15.16;62.56
63883;BME280;50047;50.596;30.466;2022-09-21T03:30:07;98806.54;;;15.15;62.13
63883;BME280;50047;50.596;30.466;2022-09-21T03:32:34;98805.84;;;15.01;62.11
63883;BME280;50047;50.596;30.466;2022-09-21T03:35:01;98810.89;;;14.80;63.04
63883;BME280;50047;50.596;30.466;2022-09-21T03:37:28;98801.90;;;15.07;62.91
63883;BME280;50047;50.596;30.466;2022-09-21T03:39:56;98804.20;;;15.52;61.87
63883;BME280;50047;50.596;30.466;2022-09-21T03:42:25;98805.54;;;15.42;61.58
63883;BME280;50047;50.596;30.466;2022-09-21T03:44:52;98799.05;;;15.21;62.13
63883;BME280;50047;50.596;30.466;2022-09-21T03:47:19;98802.52;;;15.00;62.48
63883;BME280;50047;50.596;30.466;2022-09-21T03:49:46;98809.55;;;14.71;63.15
63883;BME280;50047;50.596;30.466;2022-09-21T03:52:13;98797.86;;;15.09;63.04
63883;BME280;50047;50.596;30.466;2022-09-21T03:54:40;98808.18;;;15.43;62.36
63883;BME280;50047;50.596;30.466;2022-09-21T03:57:07;98802.91;;;15.53;61.71
63883;BME280;50047;50.596;30.466;2022-09-21T03:59:35;98803.77;;;15.36;61.53
63883;BME280;50047;50.596;30.466;2022-09-21T04:02:02;98799.84;;;15.04;62.22
63883;BME280;50047;50.596;30.466;2022-09-21T04:04:29;98802.92;;;14.82;62.97
63883;BME280;50047;50.596;30.466;2022-09-21T04:06:58;98801.55;;;15.24;62.73
63883;BME280;50047;50.596;30.466;2022-09-21T04:09:25;98796.67;;;15.61;61.90
63883;BME280;50047;50.596;30.466;2022-09-21T04:11:52;98802.29;;;15.76;61.12
63883;BME280;50047;50.596;30.466;2022-09-21T04:14:19;98809.36;;;15.60;61.32
63883;BME280;50047;50.596;30.466;2022-09-21T04:16:48;98819.48;;;15.27;61.33
63883;BME280;50047;50.596;30.466;2022-09-21T04:19:18;98804.31;;;15.04;62.26
63883;BME280;50047;50.596;30.466;2022-09-21T04:21:45;98818.92;;;15.34;61.77
63883;BME280;50047;50.596;30.466;2022-09-21T04:24:12;98818.55;;;15.64;61.12
63883;BME280;50047;50.596;30.466;2022-09-21T04:26:39;98811.09;;;15.75;61.03
63883;BME280;50047;50.596;30.466;2022-09-21T04:29:07;98817.36;;;15.63;60.67
63883;BME280;50047;50.596;30.466;2022-09-21T04:31:37;98821.10;;;15.32;61.13
63883;BME280;50047;50.596;30.466;2022-09-21T04:34:05;98821.80;;;15.19;61.71
63883;BME280;50047;50.596;30.466;2022-09-21T04:36:32;98816.80;;;15.43;61.96
63883;BME280;50047;50.596;30.466;2022-09-21T04:39:04;98827.63;;;15.78;61.62
63883;BME280;50047;50.596;30.466;2022-09-21T04:41:32;98823.50;;;15.80;60.89
63883;BME280;50047;50.596;30.466;2022-09-21T04:43:59;98819.01;;;15.65;61.00
63883;BME280;50047;50.596;30.466;2022-09-21T04:46:27;98822.80;;;15.41;61.52
63883;BME280;50047;50.596;30.466;2022-09-21T04:48:54;98820.61;;;15.28;61.94
63883;BME280;50047;50.596;30.466;2022-09-21T04:51:21;98817.91;;;15.72;62.03
63883;BME280;50047;50.596;30.466;2022-09-21T04:53:48;98824.48;;;16.27;60.56
63883;BME280;50047;50.596;30.466;2022-09-21T04:56:15;98822.20;;;16.29;60.00
63883;BME280;50047;50.596;30.466;2022-09-21T04:58:43;98820.58;;;16.12;60.11
63883;BME280;50047;50.596;30.466;2022-09-21T05:01:10;98829.25;;;15.71;60.48
63883;BME280;50047;50.596;30.466;2022-09-21T05:03:38;98832.02;;;15.37;61.24
63883;BME280;50047;50.596;30.466;2022-09-21T05:06:05;98842.71;;;15.19;62.07
63883;BME280;50047;50.596;30.466;2022-09-21T05:08:32;98833.20;;;15.54;61.94
63883;BME280;50047;50.596;30.466;2022-09-21T05:11:18;98834.35;;;15.96;60.90
63883;BME280;50047;50.596;30.466;2022-09-21T05:13:46;98826.12;;;16.08;60.49
63883;BME280;50047;50.596;30.466;2022-09-21T05:16:14;98825.89;;;15.91;60.55
63883;BME280;50047;50.596;30.466;2022-09-21T05:18:44;98829.83;;;15.72;60.68
63883;BME280;50047;50.596;30.466;2022-09-21T05:21:13;98838.16;;;15.42;61.52
63883;BME280;50047;50.596;30.466;2022-09-21T05:23:40;98832.06;;;15.81;61.96
63883;BME280;50047;50.596;30.466;2022-09-21T05:26:07;98832.11;;;16.26;60.79
63883;BME280;50047;50.596;30.466;2022-09-21T05:28:34;98834.23;;;16.57;60.19
63883;BME280;50047;50.596;30.466;2022-09-21T05:33:50;98827.45;;;16.27;59.59
63883;BME280;50047;50.596;30.466;2022-09-21T05:38:59;98819.13;;;15.76;60.71
63883;BME280;50047;50.596;30.466;2022-09-21T05:41:27;98826.30;;;16.10;61.16
63883;BME280;50047;50.596;30.466;2022-09-21T05:43:54;98825.08;;;16.62;59.53
63883;BME280;50047;50.596;30.466;2022-09-21T05:46:40;98836.17;;;16.50;59.38
63883;BME280;50047;50.596;30.466;2022-09-21T05:49:14;98837.30;;;16.43;59.70
63883;BME280;50047;50.596;30.466;2022-09-21T05:52:03;98833.05;;;16.19;59.79
63883;BME280;50047;50.596;30.466;2022-09-21T06:00:16;98833.83;;;16.05;61.08
63883;BME280;50047;50.596;30.466;2022-09-21T06:05:32;98844.45;;;16.44;60.07
63883;BME280;50047;50.596;30.466;2022-09-21T06:07:59;98843.42;;;16.31;59.69
63883;BME280;50047;50.596;30.466;2022-09-21T06:10:32;98844.13;;;16.09;59.91
63883;BME280;50047;50.596;30.466;2022-09-21T06:13:01;98844.65;;;15.86;59.97
63883;BME280;50047;50.596;30.466;2022-09-21T06:15:28;98839.25;;;15.62;60.67
63883;BME280;50047;50.596;30.466;2022-09-21T06:17:57;98841.14;;;15.79;61.25
63883;BME280;50047;50.596;30.466;2022-09-21T06:20:24;98846.04;;;16.22;60.83
63883;BME280;50047;50.596;30.466;2022-09-21T06:22:51;98848.83;;;16.32;60.03
63883;BME280;50047;50.596;30.466;2022-09-21T06:25:18;98844.38;;;16.24;59.99
63883;BME280;50047;50.596;30.466;2022-09-21T06:27:46;98858.14;;;16.06;60.05
63883;BME280;50047;50.596;30.466;2022-09-21T06:30:13;98866.91;;;15.81;60.43
63883;BME280;50047;50.596;30.466;2022-09-21T06:32:40;98868.25;;;15.58;60.65
63883;BME280;50047;50.596;30.466;2022-09-21T06:35:09;98865.63;;;15.92;61.14
63883;BME280;50047;50.596;30.466;2022-09-21T06:37:36;98865.55;;;16.32;60.50
63883;BME280;50047;50.596;30.466;2022-09-21T06:40:08;98862.70;;;16.40;59.76
63883;BME280;50047;50.596;30.466;2022-09-21T06:42:35;98863.64;;;16.34;59.52
63883;BME280;50047;50.596;30.466;2022-09-21T06:45:02;98862.25;;;16.10;59.58
63883;BME280;50047;50.596;30.466;2022-09-21T06:47:30;98859.45;;;15.83;59.96
63883;BME280;50047;50.596;30.466;2022-09-21T06:49:56;98864.64;;;15.58;60.79
63883;BME280;50047;50.596;30.466;2022-09-21T06:52:23;98871.73;;;15.86;61.40
63883;BME280;50047;50.596;30.466;2022-09-21T06:54:50;98873.08;;;16.26;60.35
63883;BME280;50047;50.596;30.466;2022-09-21T06:57:17;98872.96;;;16.36;59.85
63883;BME280;50047;50.596;30.466;2022-09-21T06:59:44;98869.73;;;16.35;59.72
63883;BME280;50047;50.596;30.466;2022-09-21T07:02:11;98874.67;;;16.13;59.97
63883;BME280;50047;50.596;30.466;2022-09-21T07:04:39;98881.34;;;15.90;60.14
63883;BME280;50047;50.596;30.466;2022-09-21T07:07:06;98881.84;;;15.69;60.72
63883;BME280;50047;50.596;30.466;2022-09-21T07:09:34;98874.89;;;15.93;61.27
63883;BME280;50047;50.596;30.466;2022-09-21T07:12:20;98874.33;;;16.43;60.21
63883;BME280;50047;50.596;30.466;2022-09-21T07:14:47;98873.48;;;16.47;59.78
63883;BME280;50047;50.596;30.466;2022-09-21T07:17:15;98873.51;;;16.35;59.63
63883;BME280;50047;50.596;30.466;2022-09-21T07:19:42;98874.05;;;16.17;59.51
63883;BME280;50047;50.596;30.466;2022-09-21T07:22:09;98878.84;;;15.97;59.77
63883;BME280;50047;50.596;30.466;2022-09-21T07:24:36;98878.39;;;15.83;60.00
63883;BME280;50047;50.596;30.466;2022-09-21T07:27:03;98880.08;;;16.27;60.18
63883;BME280;50047;50.596;30.466;2022-09-21T07:29:31;98884.10;;;16.68;59.29
63883;BME280;50047;50.596;30.466;2022-09-21T07:31:58;98886.52;;;16.81;58.65
63883;BME280;50047;50.596;30.466;2022-09-21T07:34:25;98887.35;;;16.80;58.28
63883;BME280;50047;50.596;30.466;2022-09-21T07:36:52;98885.58;;;16.70;58.21
63883;BME280;50047;50.596;30.466;2022-09-21T07:39:19;98889.73;;;16.46;58.54
63883;BME280;50047;50.596;30.466;2022-09-21T07:41:46;98886.28;;;16.23;59.11
63883;BME280;50047;50.596;30.466;2022-09-21T07:44:13;98885.81;;;16.49;59.39
63883;BME280;50047;50.596;30.466;2022-09-21T07:46:41;98888.89;;;16.89;59.11
63883;BME280;50047;50.596;30.466;2022-09-21T07:49:14;98887.46;;;17.14;58.19
63883;BME280;50047;50.596;30.466;2022-09-21T07:51:41;98896.38;;;17.15;57.71
63883;BME280;50047;50.596;30.466;2022-09-21T07:54:09;98896.05;;;16.96;57.67
63883;BME280;50047;50.596;30.466;2022-09-21T07:56:36;98896.35;;;16.76;58.16
63883;BME280;50047;50.596;30.466;2022-09-21T07:59:03;98898.21;;;16.55;58.43
63883;BME280;50047;50.596;30.466;2022-09-21T08:01:37;98902.29;;;16.90;58.88
63883;BME280;50047;50.596;30.466;2022-09-21T08:04:06;98898.77;;;17.32;58.55
63883;BME280;50047;50.596;30.466;2022-09-21T08:06:35;98902.30;;;17.38;57.83
63883;BME280;50047;50.596;30.466;2022-09-21T08:09:05;98902.73;;;17.27;57.49
63883;BME280;50047;50.596;30.466;2022-09-21T08:11:33;98903.95;;;17.15;57.41
63883;BME280;50047;50.596;30.466;2022-09-21T08:14:01;98910.25;;;17.01;57.40
63883;BME280;50047;50.596;30.466;2022-09-21T08:16:30;98903.25;;;16.78;58.05
63883;BME280;50047;50.596;30.466;2022-09-21T08:18:57;98905.17;;;17.18;58.28
63883;BME280;50047;50.596;30.466;2022-09-21T08:21:26;98902.61;;;17.77;57.53
63883;BME280;50047;50.596;30.466;2022-09-21T08:23:53;98906.85;;;18.08;56.18
63883;BME280;50047;50.596;30.466;2022-09-21T08:26:20;98902.03;;;17.99;55.69
63883;BME280;50047;50.596;30.466;2022-09-21T08:28:51;98907.35;;;17.72;55.34
63883;BME280;50047;50.596;30.466;2022-09-21T08:31:20;98906.73;;;17.41;56.23
63883;BME280;50047;50.596;30.466;2022-09-21T08:33:48;98910.12;;;17.14;56.28
63883;BME280;50047;50.596;30.466;2022-09-21T08:36:16;98910.05;;;16.87;57.06
63883;BME280;50047;50.596;30.466;2022-09-21T08:38:44;98911.86;;;17.20;57.48
63883;BME280;50047;50.596;30.466;2022-09-21T08:41:17;98908.52;;;17.58;56.83
63883;BME280;50047;50.596;30.466;2022-09-21T08:44:04;98921.70;;;17.87;56.14
63883;BME280;50047;50.596;30.466;2022-09-21T08:46:36;98917.91;;;17.84;55.85
63883;BME280;50047;50.596;30.466;2022-09-21T08:49:12;98917.02;;;17.67;55.72
63883;BME280;50047;50.596;30.466;2022-09-21T08:51:56;98913.90;;;17.32;56.09
63883;BME280;50047;50.596;30.466;2022-09-21T08:56:55;98923.23;;;16.87;56.29
63883;BME280;50047;50.596;30.466;2022-09-21T08:59:43;98921.66;;;17.61;56.25
63883;BME280;50047;50.596;30.466;2022-09-21T09:05:41;98912.69;;;17.93;54.69
63883;BME280;50047;50.596;30.466;2022-09-21T09:08:43;98924.71;;;17.80;54.75
63883;BME280;50047;50.596;30.466;2022-09-21T09:11:30;98926.02;;;17.73;54.19
63883;BME280;50047;50.596;30.466;2022-09-21T09:19:40;98923.85;;;17.36;55.17
63883;BME280;50047;50.596;30.466;2022-09-21T09:22:13;98933.02;;;18.06;54.03
63883;BME280;50047;50.596;30.466;2022-09-21T09:24:46;98930.69;;;18.39;52.74
63883;BME280;50047;50.596;30.466;2022-09-21T09:27:24;98939.96;;;18.48;51.99
63883;BME280;50047;50.596;30.466;2022-09-21T09:30:18;98941.80;;;18.38;52.06
63883;BME280;50047;50.596;30.466;2022-09-21T09:35:32;98933.84;;;17.89;52.77
63883;BME280;50047;50.596;30.466;2022-09-21T09:43:56;98940.69;;;17.52;52.89
63883;BME280;50047;50.596;30.466;2022-09-21T09:51:51;98936.48;;;19.29;50.99
63883;BME280;50047;50.596;30.466;2022-09-21T09:54:26;98944.86;;;19.46;49.56
63883;BME280;50047;50.596;30.466;2022-09-21T09:56:53;98937.84;;;19.30;49.11
63883;BME280;50047;50.596;30.466;2022-09-21T10:02:04;98943.31;;;18.78;49.46
63883;BME280;50047;50.596;30.466;2022-09-21T10:04:33;98957.98;;;18.55;49.88
63883;BME280;50047;50.596;30.466;2022-09-21T10:07:03;98947.48;;;18.36;50.21
63883;BME280;50047;50.596;30.466;2022-09-21T10:09:33;98945.24;;;18.11;50.78
63883;BME280;50047;50.596;30.466;2022-09-21T10:14:51;98949.06;;;17.85;52.22
63883;BME280;50047;50.596;30.466;2022-09-21T10:17:20;98950.70;;;17.62;52.56
63883;BME280;50047;50.596;30.466;2022-09-21T10:20:00;98943.14;;;17.54;52.78
63883;BME280;50047;50.596;30.466;2022-09-21T10:22:28;98945.27;;;17.43;52.94
63883;BME280;50047;50.596;30.466;2022-09-21T10:24:56;98947.84;;;17.91;52.31
63883;BME280;50047;50.596;30.466;2022-09-21T10:27:34;98953.38;;;18.28;51.62
63883;BME280;50047;50.596;30.466;2022-09-21T10:30:02;98952.98;;;18.28;51.11
63883;BME280;50047;50.596;30.466;2022-09-21T10:32:29;98957.62;;;18.14;51.43
63883;BME280;50047;50.596;30.466;2022-09-21T10:37:33;98951.38;;;18.01;51.65
63883;BME280;50047;50.596;30.466;2022-09-21T10:40:03;98958.18;;;17.77;52.21
63883;BME280;50047;50.596;30.466;2022-09-21T10:42:37;98956.10;;;17.79;52.01
63883;BME280;50047;50.596;30.466;2022-09-21T10:45:18;98956.46;;;17.70;52.14
63883;BME280;50047;50.596;30.466;2022-09-21T10:49:27;98963.77;;;17.22;53.39
63883;BME280;50047;50.596;30.466;2022-09-21T10:51:57;98968.48;;;17.53;53.31
63883;BME280;50047;50.596;30.466;2022-09-21T10:54:28;98962.90;;;18.09;52.13
63883;BME280;50047;50.596;30.466;2022-09-21T10:57:00;98957.11;;;18.61;51.21
63883;BME280;50047;50.596;30.466;2022-09-21T10:59:31;98965.13;;;18.96;50.27
63883;BME280;50047;50.596;30.466;2022-09-21T11:01:59;98958.60;;;19.10;49.61
63883;BME280;50047;50.596;30.466;2022-09-21T11:04:35;98959.29;;;19.11;49.52
63883;BME280;50047;50.596;30.466;2022-09-21T11:07:19;98957.10;;;18.91;49.75
63883;BME280;50047;50.596;30.466;2022-09-21T11:13:08;98949.96;;;18.64;50.73
63883;BME280;50047;50.596;30.466;2022-09-21T11:18:39;98948.64;;;18.32;51.56
63883;BME280;50047;50.596;30.466;2022-09-21T11:21:31;98947.96;;;18.29;51.70
63883;BME280;50047;50.596;30.466;2022-09-21T11:24:09;98942.32;;;18.28;52.13
63883;BME280;50047;50.596;30.466;2022-09-21T11:26:55;98949.48;;;18.92;52.22
63883;BME280;50047;50.596;30.466;2022-09-21T11:46:32;98953.38;;;19.11;48.98
63883;BME280;50047;50.596;30.466;2022-09-21T11:57:42;98959.98;;;18.33;51.21
63883;BME280;50047;50.596;30.466;2022-09-21T12:05:55;98978.81;;;17.80;54.80
63883;BME280;50047;50.596;30.466;2022-09-21T12:14:44;98972.04;;;17.39;54.54
63883;BME280;50047;50.596;30.466;2022-09-21T12:20:45;98978.16;;;17.18;54.18
63883;BME280;50047;50.596;30.466;2022-09-21T12:25:56;98970.71;;;18.11;53.52
63883;BME280;50047;50.596;30.466;2022-09-21T12:28:35;98982.15;;;18.64;52.13
63883;BME280;50047;50.596;30.466;2022-09-21T12:31:10;98976.54;;;18.65;52.06
63883;BME280;50047;50.596;30.466;2022-09-21T12:45:18;98986.91;;;17.38;54.69
63883;BME280;50047;50.596;30.466;2022-09-21T12:50:28;98988.59;;;17.95;55.12
63883;BME280;50047;50.596;30.466;2022-09-21T12:52:58;98988.73;;;18.36;54.28
63883;BME280;50047;50.596;30.466;2022-09-21T12:58:16;98975.78;;;18.40;53.01
63883;BME280;50047;50.596;30.466;2022-09-21T13:03:26;98977.87;;;17.98;52.64
63883;BME280;50047;50.596;30.466;2022-09-21T13:06:22;98980.21;;;17.69;53.18
63883;BME280;50047;50.596;30.466;2022-09-21T13:08:55;98976.59;;;17.49;53.49
63883;BME280;50047;50.596;30.466;2022-09-21T13:11:23;98979.95;;;17.37;53.35
63883;BME280;50047;50.596;30.466;2022-09-21T13:13:58;98969.11;;;17.09;53.48
63883;BME280;50047;50.596;30.466;2022-09-21T13:16:30;98976.57;;;16.90;53.93
63883;BME280;50047;50.596;30.466;2022-09-21T13:19:01;98971.99;;;17.44;54.24
63883;BME280;50047;50.596;30.466;2022-09-21T13:21:31;98978.98;;;17.86;53.82
63883;BME280;50047;50.596;30.466;2022-09-21T13:24:04;98971.90;;;18.21;53.21
63883;BME280;50047;50.596;30.466;2022-09-21T13:29:34;98975.70;;;18.08;52.83
63883;BME280;50047;50.596;30.466;2022-09-21T13:34:41;98965.05;;;17.64;53.06
63883;BME280;50047;50.596;30.466;2022-09-21T13:45:01;98964.25;;;17.77;54.12
63883;BME280;50047;50.596;30.466;2022-09-21T13:47:46;98962.42;;;18.30;52.97
63883;BME280;50047;50.596;30.466;2022-09-21T13:52:54;98976.20;;;18.40;51.89
63883;BME280;50047;50.596;30.466;2022-09-21T13:55:33;98985.44;;;18.15;51.58
63883;BME280;50047;50.596;30.466;2022-09-21T13:58:04;98982.09;;;17.92;51.46
63883;BME280;50047;50.596;30.466;2022-09-21T14:00:41;98980.02;;;17.82;51.96
63883;BME280;50047;50.596;30.466;2022-09-21T14:03:41;98973.05;;;17.75;51.59
63883;BME280;50047;50.596;30.466;2022-09-21T14:06:25;98971.59;;;17.61;51.66
63883;BME280;50047;50.596;30.466;2022-09-21T14:08:57;98978.95;;;17.54;51.47
63883;BME280;50047;50.596;30.466;2022-09-21T14:11:34;98978.55;;;17.40;51.59
63883;BME280;50047;50.596;30.466;2022-09-21T14:14:25;98981.48;;;17.29;51.64
63883;BME280;50047;50.596;30.466;2022-09-21T14:16:58;98980.98;;;17.18;52.63
63883;BME280;50047;50.596;30.466;2022-09-21T14:24:45;98978.35;;;18.50;51.09
63883;BME280;50047;50.596;30.466;2022-09-21T14:29:54;98981.94;;;18.08;50.37
63883;BME280;50047;50.596;30.466;2022-09-21T14:32:28;98986.33;;;17.80;50.98
63883;BME280;50047;50.596;30.466;2022-09-21T14:35:10;98984.85;;;17.57;51.50
63883;BME280;50047;50.596;30.466;2022-09-21T14:37:43;98986.78;;;17.51;51.40
63883;BME280;50047;50.596;30.466;2022-09-21T14:40:22;98988.02;;;17.37;51.75
63883;BME280;50047;50.596;30.466;2022-09-21T14:42:52;98990.54;;;17.27;52.22
63883;BME280;50047;50.596;30.466;2022-09-21T14:49:13;98993.38;;;17.08;52.82
63883;BME280;50047;50.596;30.466;2022-09-21T14:58:23;98999.98;;;18.34;52.04
63883;BME280;50047;50.596;30.466;2022-09-21T15:00:53;99003.95;;;18.33;51.12
63883;BME280;50047;50.596;30.466;2022-09-21T15:06:00;99000.88;;;18.02;50.71
63883;BME280;50047;50.596;30.466;2022-09-21T15:09:29;99000.31;;;17.81;50.68
63883;BME280;50047;50.596;30.466;2022-09-21T15:12:37;99007.29;;;17.54;51.34
63883;BME280;50047;50.596;30.466;2022-09-21T15:15:30;99005.85;;;17.42;51.48
63883;BME280;50047;50.596;30.466;2022-09-21T15:17:58;99011.79;;;17.35;51.30
63883;BME280;50047;50.596;30.466;2022-09-21T15:20:29;99018.88;;;17.26;51.28
63883;BME280;50047;50.596;30.466;2022-09-21T15:22:58;99016.96;;;17.15;51.53
63883;BME280;50047;50.596;30.466;2022-09-21T15:25:30;99018.52;;;16.99;51.87
63883;BME280;50047;50.596;30.466;2022-09-21T15:27:59;99021.48;;;17.29;52.92
63883;BME280;50047;50.596;30.466;2022-09-21T15:30:27;99022.30;;;17.77;52.37
63883;BME280;50047;50.596;30.466;2022-09-21T15:32:57;99020.78;;;17.99;51.78
63883;BME280;50047;50.596;30.466;2022-09-21T15:35:27;99023.86;;;18.03;51.27
63883;BME280;50047;50.596;30.466;2022-09-21T15:37:56;99025.73;;;17.99;50.92
63883;BME280;50047;50.596;30.466;2022-09-21T15:40:33;99030.70;;;17.89;50.78
63883;BME280;50047;50.596;30.466;2022-09-21T15:48:17;99037.83;;;17.39;51.39
63883;BME280;50047;50.596;30.466;2022-09-21T15:50:49;99036.98;;;17.30;51.50
63883;BME280;50047;50.596;30.466;2022-09-21T15:53:46;99042.01;;;17.22;51.88
63883;BME280;50047;50.596;30.466;2022-09-21T15:56:26;99043.47;;;17.05;52.55
63883;BME280;50047;50.596;30.466;2022-09-21T15:59:00;99047.83;;;17.41;53.51
63883;BME280;50047;50.596;30.466;2022-09-21T16:01:39;99052.78;;;17.86;53.38
63883;BME280;50047;50.596;30.466;2022-09-21T16:04:14;99059.78;;;18.04;52.31
63883;BME280;50047;50.596;30.466;2022-09-21T16:06:46;99062.50;;;18.00;52.11
63883;BME280;50047;50.596;30.466;2022-09-21T16:11:57;99058.58;;;17.72;51.94
63883;BME280;50047;50.596;30.466;2022-09-21T16:14:25;99057.84;;;17.55;52.13
63883;BME280;50047;50.596;30.466;2022-09-21T16:22:36;99061.35;;;17.15;52.90
63883;BME280;50047;50.596;30.466;2022-09-21T16:27:51;99062.73;;;17.12;54.87
63883;BME280;50047;50.596;30.466;2022-09-21T16:33:36;99067.73;;;17.61;54.05
63883;BME280;50047;50.596;30.466;2022-09-21T16:39:00;99070.05;;;17.19;53.95